Time;durP1;ratioP1;P1;durP2;ratioP2;P2;SDS_P1;SDS_P2;PMS_P1;PMS_P2;Temp;Humidity;BMP_temperature;BMP_pressure;BME280_temperature;BME280_humidity;BME280_pressure;Samples;Min_cycle;Max_cycle;Signal;HPM_P1;HPM_P2
2022/08/19 00:00:50;;;;;;;11.30;8.03;;;20.50;99.90;;;;;;5010907;28;20469;-70
2022/08/19 00:03:18;;;;;;;10.10;8.40;;;20.50;99.90;;;;;;5010205;28;20473;-70
2022/08/19 00:05:45;;;;;;;9.50;7.97;;;20.50;99.90;;;;;;5010588;28;20965;-70
2022/08/19 00:08:12;;;;;;;8.60;7.70;;;20.50;99.90;;;;;;5010198;28;20481;-70
2022/08/19 00:10:38;;;;;;;8.23;7.43;;;20.50;99.90;;;;;;5010414;28;20950;-70
2022/08/19 00:13:05;;;;;;;9.27;7.60;;;20.50;99.90;;;;;;5010579;28;20466;-70
2022/08/19 00:15:32;;;;;;;9.03;7.70;;;20.50;99.90;;;;;;5009543;28;20497;-70
2022/08/19 00:17:59;;;;;;;10.07;8.27;;;20.50;99.90;;;;;;5010467;28;20489;-71
2022/08/19 00:20:27;;;;;;;11.03;8.87;;;20.50;99.90;;;;;;5010058;28;20488;-70
2022/08/19 00:22:54;;;;;;;10.70;8.30;;;20.50;99.90;;;;;;5010408;28;20516;-70
2022/08/19 00:25:21;;;;;;;10.40;8.67;;;20.50;99.90;;;;;;5009630;28;20454;-70
2022/08/19 00:27:48;;;;;;;9.40;7.80;;;20.50;99.90;;;;;;5010026;28;20490;-71
2022/08/19 00:30:15;;;;;;;10.63;8.93;;;20.50;99.90;;;;;;5010246;28;20461;-70
2022/08/19 00:32:41;;;;;;;10.53;9.43;;;20.50;99.90;;;;;;5010250;28;20666;-70
2022/08/19 00:35:10;;;;;;;11.30;8.30;;;20.40;99.90;;;;;;5010008;28;20488;-70
2022/08/19 00:37:40;;;;;;;9.43;8.30;;;20.40;99.90;;;;;;5009949;28;21064;-71
2022/08/19 00:40:08;;;;;;;11.20;9.10;;;20.40;99.90;;;;;;5010168;28;20508;-70
2022/08/19 00:42:35;;;;;;;8.47;7.67;;;20.40;99.90;;;;;;5010105;28;20842;-70
2022/08/19 00:45:03;;;;;;;12.60;8.47;;;20.40;99.90;;;;;;5009486;28;20469;-70
2022/08/19 00:47:29;;;;;;;9.00;8.07;;;20.30;99.90;;;;;;5010093;28;20490;-70
2022/08/19 00:49:58;;;;;;;9.73;8.50;;;20.40;99.90;;;;;;5010004;28;20519;-70
2022/08/19 00:52:28;;;;;;;10.27;8.00;;;20.30;99.90;;;;;;5010014;28;20469;-70
2022/08/19 00:54:57;;;;;;;9.30;7.70;;;20.30;99.90;;;;;;5009604;28;20468;-70
2022/08/19 00:57:30;;;;;;;12.20;8.50;;;20.30;99.90;;;;;;5009525;28;20478;-70
2022/08/19 00:59:59;;;;;;;9.73;7.80;;;20.30;99.90;;;;;;5010168;28;20469;-70
2022/08/19 01:02:27;;;;;;;9.83;7.80;;;20.30;99.90;;;;;;5009691;28;20560;-70
2022/08/19 01:04:54;;;;;;;8.57;7.30;;;20.30;99.90;;;;;;5009608;28;20468;-70
2022/08/19 01:07:21;;;;;;;9.10;8.13;;;20.30;99.90;;;;;;5013349;28;20537;-71
2022/08/19 01:09:48;;;;;;;10.93;8.80;;;20.30;99.90;;;;;;5013551;28;20472;-70
2022/08/19 01:12:17;;;;;;;10.27;8.77;;;20.30;99.90;;;;;;5013508;28;20467;-70
2022/08/19 01:14:45;;;;;;;9.77;8.60;;;20.30;99.90;;;;;;5012897;28;20469;-70
2022/08/19 01:17:12;;;;;;;10.00;8.50;;;20.30;99.90;;;;;;5013268;28;20490;-70
2022/08/19 01:19:42;;;;;;;11.40;8.80;;;20.30;99.90;;;;;;5012950;28;20962;-71
2022/08/19 01:22:13;;;;;;;9.53;8.57;;;20.20;99.90;;;;;;5013434;28;20467;-70
2022/08/19 01:24:42;;;;;;;10.37;8.97;;;20.20;99.90;;;;;;5012707;28;20548;-70
2022/08/19 01:27:09;;;;;;;10.20;8.20;;;20.20;99.90;;;;;;5012819;28;20484;-70
2022/08/19 01:29:41;;;;;;;10.87;9.17;;;20.20;99.90;;;;;;5012909;28;20537;-70
2022/08/19 01:32:08;;;;;;;10.87;9.13;;;20.20;99.90;;;;;;5012674;28;20950;-70
2022/08/19 01:34:35;;;;;;;10.67;9.17;;;20.20;99.90;;;;;;5012615;28;20465;-70
2022/08/19 01:37:10;;;;;;;10.77;8.90;;;20.10;99.90;;;;;;5012827;28;20493;-70
2022/08/19 01:39:38;;;;;;;11.67;8.97;;;20.10;99.90;;;;;;5012664;28;20504;-70
2022/08/19 01:42:08;;;;;;;10.63;8.90;;;20.10;99.90;;;;;;5012855;28;20957;-70
2022/08/19 01:44:36;;;;;;;9.60;8.60;;;20.10;99.90;;;;;;5011862;28;20532;-71
2022/08/19 01:47:03;;;;;;;12.43;9.30;;;20.00;99.90;;;;;;5012846;28;20581;-70
2022/08/19 01:49:31;;;;;;;10.67;9.13;;;20.00;99.90;;;;;;5012218;28;20529;-70
2022/08/19 01:52:00;;;;;;;10.27;8.73;;;20.00;99.90;;;;;;5012677;28;20473;-70
2022/08/19 01:54:26;;;;;;;9.93;8.37;;;20.00;99.90;;;;;;5011977;28;20466;-70
2022/08/19 01:56:55;;;;;;;12.10;8.90;;;19.90;99.90;;;;;;5012527;28;20486;-70
2022/08/19 01:59:24;;;;;;;12.10;10.43;;;19.90;99.90;;;;;;5012422;28;21020;-70
2022/08/19 02:01:51;;;;;;;11.60;9.60;;;19.90;99.90;;;;;;5012600;28;20466;-70
2022/08/19 02:04:18;;;;;;;12.10;9.20;;;19.90;99.90;;;;;;5011902;28;20465;-70
2022/08/19 02:06:45;;;;;;;10.37;9.23;;;19.90;99.90;;;;;;5012252;28;20845;-70
2022/08/19 02:09:11;;;;;;;11.47;8.83;;;19.90;99.90;;;;;;5012316;28;20473;-70
2022/08/19 02:11:38;;;;;;;11.40;9.00;;;19.80;99.90;;;;;;5012288;28;20468;-70
2022/08/19 02:14:07;;;;;;;9.53;8.53;;;19.90;99.90;;;;;;5011324;28;20555;-70
2022/08/19 02:16:38;;;;;;;11.43;9.20;;;19.90;99.90;;;;;;5011520;28;20504;-70
2022/08/19 02:19:05;;;;;;;11.90;9.60;;;19.90;99.90;;;;;;5011749;28;20806;-70
2022/08/19 02:21:32;;;;;;;11.53;9.53;;;19.90;99.90;;;;;;5011999;28;21105;-70
2022/08/19 02:23:59;;;;;;;12.03;10.07;;;19.90;99.90;;;;;;5011633;28;20473;-70
2022/08/19 02:26:27;;;;;;;12.60;10.17;;;19.80;99.90;;;;;;5011596;28;20469;-71
2022/08/19 02:28:54;;;;;;;10.47;8.90;;;19.80;99.90;;;;;;5012106;28;20493;-70
2022/08/19 02:31:22;;;;;;;13.07;9.00;;;19.80;99.90;;;;;;5011420;28;20467;-70
2022/08/19 02:33:52;;;;;;;10.57;8.93;;;19.80;99.90;;;;;;5011489;28;20462;-70
2022/08/19 02:36:19;;;;;;;11.37;9.10;;;19.80;99.90;;;;;;5011165;28;20489;-70
2022/08/19 02:38:45;;;;;;;13.03;10.23;;;19.80;99.90;;;;;;5011892;28;20497;-70
2022/08/19 02:41:15;;;;;;;12.20;9.00;;;19.80;99.90;;;;;;5011745;28;20512;-70
2022/08/19 02:43:42;;;;;;;10.67;9.23;;;19.90;99.90;;;;;;5010828;28;20977;-70
2022/08/19 02:46:14;;;;;;;14.07;10.30;;;19.80;99.90;;;;;;5011702;28;20965;-71
2022/08/19 02:48:41;;;;;;;11.50;9.60;;;19.80;99.90;;;;;;5010973;28;20486;-71
2022/08/19 02:51:09;;;;;;;14.00;9.23;;;19.80;99.90;;;;;;5011628;28;20517;-71
2022/08/19 02:53:37;;;;;;;15.30;10.33;;;19.80;99.90;;;;;;5010909;28;20468;-71
2022/08/19 02:56:07;;;;;;;11.87;9.30;;;19.80;99.90;;;;;;5011280;28;20526;-70
2022/08/19 02:58:34;;;;;;;15.70;10.63;;;19.80;99.90;;;;;;5011413;28;20509;-71
2022/08/19 03:01:01;;;;;;;10.87;9.40;;;19.80;99.90;;;;;;5011062;28;20461;-71
2022/08/19 03:03:27;;;;;;;12.17;9.77;;;19.70;99.90;;;;;;5010718;28;20469;-71
2022/08/19 03:06:05;;;;;;;12.83;10.27;;;19.70;99.90;;;;;;5011415;28;20861;-70
2022/08/19 03:08:33;;;;;;;11.93;9.87;;;19.70;99.90;;;;;;5011118;28;20862;-70
2022/08/19 03:11:00;;;;;;;12.60;10.60;;;19.70;99.90;;;;;;5011141;28;20905;-70
2022/08/19 03:13:27;;;;;;;12.23;9.83;;;19.70;99.90;;;;;;5009902;28;21018;-71
2022/08/19 03:15:54;;;;;;;12.50;10.47;;;19.60;99.90;;;;;;5011380;28;20468;-71
2022/08/19 03:18:21;;;;;;;15.20;11.23;;;19.60;99.90;;;;;;5010343;28;20490;-71
2022/08/19 03:20:50;;;;;;;13.50;10.43;;;19.60;99.90;;;;;;5011350;28;20518;-70
2022/08/19 03:23:17;;;;;;;13.53;11.10;;;19.60;99.90;;;;;;5010789;28;20467;-70
2022/08/19 03:25:49;;;;;;;11.20;9.27;;;19.60;99.90;;;;;;5010854;28;20836;-70
2022/08/19 03:28:17;;;;;;;12.07;10.77;;;19.60;99.90;;;;;;5010111;28;20496;-70
2022/08/19 03:30:56;;;;;;;13.73;11.00;;;19.60;99.90;;;;;;5010741;28;21027;-70
2022/08/19 03:33:24;;;;;;;16.33;11.90;;;19.60;99.90;;;;;;5010417;28;20494;-71
2022/08/19 03:36:01;;;;;;;12.93;10.80;;;19.60;99.90;;;;;;5010643;28;20469;-71
2022/08/19 03:38:28;;;;;;;12.27;11.03;;;19.60;99.90;;;;;;5040767;22;20501;-93
2022/08/19 03:40:56;;;;;;;12.80;10.43;;;19.60;99.90;;;;;;5065982;28;20471;-91
2022/08/19 03:43:28;;;;;;;16.30;11.13;;;19.60;99.90;;;;;;5042634;28;20459;-93
2022/08/19 03:46:06;;;;;;;14.87;11.80;;;19.60;99.90;;;;;;5039867;28;20982;-92
2022/08/19 03:48:35;;;;;;;14.60;11.53;;;19.60;99.90;;;;;;5038576;28;20507;-92
2022/08/19 03:51:02;;;;;;;13.97;11.67;;;19.60;99.90;;;;;;5039439;28;20453;-92
2022/08/19 03:53:30;;;;;;;17.20;12.00;;;19.50;99.90;;;;;;5046752;28;20467;-92
2022/08/19 03:56:00;;;;;;;12.00;10.30;;;19.50;99.90;;;;;;5045234;28;20938;-93
2022/08/19 03:58:28;;;;;;;14.97;12.00;;;19.50;99.90;;;;;;5037167;28;20481;-93
2022/08/19 04:00:56;;;;;;;13.20;11.50;;;19.60;99.90;;;;;;5037578;28;20500;-92
2022/08/19 04:03:24;;;;;;;13.40;10.67;;;19.50;99.90;;;;;;5039337;28;20469;-93
2022/08/19 04:05:51;;;;;;;14.80;10.77;;;19.50;99.90;;;;;;5036682;28;20524;-93
2022/08/19 04:08:20;;;;;;;14.70;12.13;;;19.50;99.90;;;;;;5035682;28;20902;-93
2022/08/19 04:10:47;;;;;;;14.40;11.40;;;19.50;99.90;;;;;;5036510;28;20473;-94
2022/08/19 04:13:16;;;;;;;14.43;11.87;;;19.50;99.90;;;;;;5036065;28;20564;-93
2022/08/19 04:15:46;;;;;;;13.23;10.83;;;19.50;99.90;;;;;;5036090;28;20471;-93
2022/08/19 04:18:13;;;;;;;13.87;11.40;;;19.50;99.90;;;;;;5035577;28;20563;-93
2022/08/19 04:20:46;;;;;;;14.37;11.50;;;19.50;99.90;;;;;;5035735;28;20476;-93
2022/08/19 04:23:14;;;;;;;13.27;11.20;;;19.50;99.90;;;;;;5036358;28;20909;-93
2022/08/19 04:28:30;;;;;;;14.30;12.80;;;19.50;99.90;;;;;;5023191;28;20526;-93
2022/08/19 04:31:01;;;;;;;13.87;12.43;;;19.50;99.90;;;;;;5036843;28;20458;-93
2022/08/19 04:33:30;;;;;;;15.03;11.63;;;19.50;99.90;;;;;;5035319;28;20523;-93
2022/08/19 04:35:58;;;;;;;16.90;12.63;;;19.40;99.90;;;;;;5036307;28;20453;-93
2022/08/19 04:38:41;;;;;;;15.30;12.53;;;19.40;99.90;;;;;;5035305;28;20489;-93
2022/08/19 04:44:17;;;;;;;14.70;11.43;;;19.40;99.90;;;;;;5038408;28;20428;-92
2022/08/19 04:46:55;;;;;;;13.20;10.93;;;19.40;99.90;;;;;;5037586;28;20547;-92
2022/08/19 04:49:28;;;;;;;16.03;12.53;;;19.40;99.90;;;;;;5037575;28;20485;-92
2022/08/19 05:00:40;;;;;;;13.90;11.47;;;19.40;99.90;;;;;;5040376;23;20489;-66
2022/08/19 05:03:08;;;;;;;13.67;12.00;;;19.40;99.90;;;;;;5032794;28;20510;-66
2022/08/19 05:05:39;;;;;;;17.83;12.27;;;19.40;99.90;;;;;;5032853;28;20976;-66
2022/08/19 05:08:07;;;;;;;15.90;12.57;;;19.40;99.90;;;;;;5032778;28;20988;-66
2022/08/19 05:10:36;;;;;;;16.20;12.20;;;19.40;99.90;;;;;;5033423;28;20568;-66
2022/08/19 05:13:03;;;;;;;18.73;14.47;;;19.40;99.90;;;;;;5032849;28;20452;-66
2022/08/19 05:15:30;;;;;;;14.30;12.47;;;19.40;99.90;;;;;;5032588;28;20493;-66
2022/08/19 05:23:29;;;;;;;16.40;13.00;;;19.30;99.90;;;;;;5032645;28;20440;-66
2022/08/19 05:25:56;;;;;;;16.43;12.50;;;19.40;99.90;;;;;;5032748;28;20464;-66
2022/08/19 05:28:23;;;;;;;16.00;12.17;;;19.40;99.90;;;;;;5032546;28;20483;-66
2022/08/19 05:30:50;;;;;;;16.10;11.93;;;19.40;99.90;;;;;;5032640;28;20463;-66
2022/08/19 05:33:18;;;;;;;18.00;13.40;;;19.40;99.90;;;;;;5032599;28;20846;-66
2022/08/19 05:35:45;;;;;;;13.37;11.80;;;19.40;99.90;;;;;;5032378;28;20460;-66
2022/08/19 05:38:12;;;;;;;14.77;11.93;;;19.40;99.90;;;;;;5032595;28;20539;-67
2022/08/19 05:40:39;;;;;;;14.53;11.67;;;19.30;99.90;;;;;;5032564;28;20471;-66
2022/08/19 05:43:08;;;;;;;17.20;12.27;;;19.30;99.90;;;;;;5032426;28;20472;-66
2022/08/19 05:45:40;;;;;;;16.90;12.07;;;19.30;99.90;;;;;;5031974;28;20457;-67
2022/08/19 05:48:06;;;;;;;15.53;12.83;;;19.30;99.90;;;;;;5032353;28;20480;-66
2022/08/19 05:50:36;;;;;;;15.67;12.43;;;19.30;99.90;;;;;;5032499;28;20460;-66
2022/08/19 05:53:03;;;;;;;15.30;12.60;;;19.30;99.90;;;;;;5031633;28;20465;-66
2022/08/19 05:55:30;;;;;;;15.43;12.60;;;19.30;99.90;;;;;;5031828;28;20967;-67
2022/08/19 05:57:57;;;;;;;16.53;12.70;;;19.30;99.90;;;;;;5032168;28;20584;-66
2022/08/19 06:00:24;;;;;;;15.87;12.30;;;19.30;99.90;;;;;;5032031;28;20468;-66
2022/08/19 06:02:51;;;;;;;14.80;11.67;;;19.30;99.90;;;;;;5032533;28;20461;-65
2022/08/19 06:05:19;;;;;;;14.37;12.17;;;19.30;99.90;;;;;;5031921;28;20503;-65
2022/08/19 06:07:47;;;;;;;15.80;12.87;;;19.30;99.90;;;;;;5032236;28;20484;-65
2022/08/19 06:10:14;;;;;;;16.17;12.07;;;19.30;99.90;;;;;;5011451;28;20466;-65
2022/08/19 06:12:41;;;;;;;15.50;12.30;;;19.30;99.90;;;;;;5018453;28;20480;-65
2022/08/19 06:15:10;;;;;;;13.00;11.10;;;19.30;99.90;;;;;;5012404;28;20466;-65
2022/08/19 06:17:37;;;;;;;17.00;13.37;;;19.30;99.90;;;;;;5012468;28;20493;-65
2022/08/19 06:20:06;;;;;;;16.50;12.90;;;19.30;99.90;;;;;;5012763;28;20462;-64
2022/08/19 06:22:38;;;;;;;16.20;13.77;;;19.30;99.90;;;;;;5009842;28;20853;-65
2022/08/19 06:25:08;;;;;;;17.10;13.10;;;19.30;99.90;;;;;;5011998;28;20466;-65
2022/08/19 06:27:36;;;;;;;14.17;10.87;;;19.30;99.90;;;;;;5011859;28;20484;-66
2022/08/19 06:30:04;;;;;;;14.47;11.10;;;19.30;99.90;;;;;;5012019;28;20489;-65
2022/08/19 06:32:31;;;;;;;17.30;12.93;;;19.30;99.90;;;;;;5008367;28;20464;-65
2022/08/19 06:34:58;;;;;;;14.97;12.33;;;19.30;99.90;;;;;;5011298;28;20469;-65
2022/08/19 06:37:25;;;;;;;17.37;12.03;;;19.30;99.90;;;;;;5011405;28;20485;-64
2022/08/19 06:39:52;;;;;;;13.80;11.33;;;19.30;99.90;;;;;;5011816;28;20883;-65
2022/08/19 06:42:20;;;;;;;15.30;11.43;;;19.40;99.90;;;;;;5009985;28;20466;-64
2022/08/19 06:44:49;;;;;;;15.27;12.50;;;19.40;99.90;;;;;;5010883;28;20458;-65
2022/08/19 06:47:19;;;;;;;15.13;13.20;;;19.40;99.90;;;;;;5010800;28;20482;-64
2022/08/19 06:49:46;;;;;;;14.20;12.70;;;19.40;99.90;;;;;;5011002;28;20469;-65
2022/08/19 06:52:14;;;;;;;13.87;11.43;;;19.40;99.90;;;;;;5008469;28;20473;-66
2022/08/19 06:54:41;;;;;;;18.90;12.20;;;19.40;99.90;;;;;;5010140;28;20567;-65
2022/08/19 06:57:13;;;;;;;17.93;11.90;;;19.40;99.90;;;;;;5011427;28;20498;-66
2022/08/19 06:59:41;;;;;;;15.73;12.03;;;19.40;99.90;;;;;;5005680;28;20474;-65
2022/08/19 07:02:08;;;;;;;15.83;12.37;;;19.40;99.90;;;;;;5010556;28;20466;-65
2022/08/19 07:04:38;;;;;;;14.10;11.90;;;19.40;99.90;;;;;;5009372;28;20461;-64
2022/08/19 07:07:07;;;;;;;13.63;11.10;;;19.40;99.90;;;;;;5010665;28;20492;-65
2022/08/19 07:09:36;;;;;;;17.13;14.33;;;19.40;99.90;;;;;;5010677;28;20458;-65
2022/08/19 07:12:06;;;;;;;16.70;12.17;;;19.40;99.90;;;;;;5010203;28;20515;-64
2022/08/19 07:14:37;;;;;;;15.33;12.73;;;19.40;99.90;;;;;;5009959;28;20832;-65
2022/08/19 07:17:07;;;;;;;13.30;11.97;;;19.40;99.90;;;;;;5010811;28;20486;-66
2022/08/19 07:19:35;;;;;;;16.30;12.60;;;19.30;99.90;;;;;;5010675;28;20473;-65
2022/08/19 07:22:03;;;;;;;15.10;11.60;;;19.30;99.90;;;;;;5010659;28;20462;-64
2022/08/19 07:24:31;;;;;;;17.10;13.97;;;19.20;99.90;;;;;;5009052;28;20835;-65
2022/08/19 07:27:02;;;;;;;19.30;13.00;;;19.20;99.90;;;;;;5010873;28;20993;-65
2022/08/19 07:29:29;;;;;;;16.07;12.70;;;19.20;99.90;;;;;;5009579;28;20949;-65
2022/08/19 07:31:58;;;;;;;13.80;12.13;;;19.20;99.90;;;;;;5010757;28;20639;-65
2022/08/19 07:34:27;;;;;;;15.43;11.50;;;19.20;99.90;;;;;;5009807;28;20536;-64
2022/08/19 07:36:55;;;;;;;15.83;11.37;;;19.20;99.90;;;;;;5009835;28;20485;-66
2022/08/19 07:39:25;;;;;;;18.83;12.90;;;19.20;99.90;;;;;;5010547;28;20862;-65
2022/08/19 07:41:53;;;;;;;12.43;10.50;;;19.20;99.90;;;;;;5010354;28;20458;-65
2022/08/19 07:44:20;;;;;;;13.33;11.60;;;19.20;99.90;;;;;;5009433;28;20461;-64
2022/08/19 07:46:50;;;;;;;15.90;11.77;;;19.20;99.90;;;;;;5009950;28;20493;-66
2022/08/19 07:49:18;;;;;;;15.00;12.50;;;19.20;99.90;;;;;;5009551;28;20464;-65
2022/08/19 07:51:47;;;;;;;13.40;10.90;;;19.20;99.90;;;;;;5008864;28;20497;-66
2022/08/19 07:54:14;;;;;;;12.83;11.47;;;19.20;99.90;;;;;;5008373;28;20468;-65
2022/08/19 07:56:41;;;;;;;12.73;10.27;;;19.20;99.90;;;;;;5008911;28;20477;-64
2022/08/19 07:59:08;;;;;;;12.23;10.30;;;19.20;99.90;;;;;;5008283;28;20485;-65
2022/08/19 08:01:36;;;;;;;12.97;10.77;;;19.20;99.90;;;;;;5008297;28;20462;-65
2022/08/19 08:09:36;;;;;;;11.33;9.60;;;19.30;99.90;;;;;;5008764;28;20444;-64
2022/08/19 08:12:06;;;;;;;11.53;10.33;;;19.30;99.90;;;;;;5009125;28;20949;-65
2022/08/19 08:14:35;;;;;;;12.57;10.13;;;19.40;99.90;;;;;;5007237;28;20843;-66
2022/08/19 08:17:04;;;;;;;12.63;10.10;;;19.40;99.90;;;;;;5013083;28;20486;-66
2022/08/19 08:19:31;;;;;;;13.93;10.27;;;19.40;99.90;;;;;;5012784;28;20990;-66
2022/08/19 08:22:01;;;;;;;14.40;11.23;;;19.40;99.90;;;;;;5012873;28;20512;-65
2022/08/19 08:24:31;;;;;;;14.20;10.97;;;19.40;99.90;;;;;;5012390;28;20468;-65
2022/08/19 08:26:59;;;;;;;12.40;10.63;;;19.40;99.90;;;;;;5013159;28;20988;-64
2022/08/19 08:29:30;;;;;;;12.73;10.10;;;19.30;99.90;;;;;;5012383;28;20469;-64
2022/08/19 08:31:57;;;;;;;11.17;10.00;;;19.40;99.90;;;;;;5013309;28;20469;-65
2022/08/19 08:34:24;;;;;;;15.70;11.70;;;19.30;99.90;;;;;;5011946;28;20528;-67
2022/08/19 08:36:51;;;;;;;13.23;10.40;;;19.30;99.90;;;;;;5012846;28;20506;-65
2022/08/19 08:39:21;;;;;;;12.97;10.50;;;19.30;99.90;;;;;;5013092;28;20489;-66
2022/08/19 08:41:53;;;;;;;15.90;11.13;;;19.30;99.90;;;;;;5013035;28;20961;-66
2022/08/19 08:44:24;;;;;;;10.80;9.70;;;19.30;99.90;;;;;;5011880;28;20515;-66
2022/08/19 08:46:55;;;;;;;11.90;9.63;;;19.30;99.90;;;;;;5012870;28;20492;-65
2022/08/19 08:49:32;;;;;;;14.57;10.67;;;19.40;99.90;;;;;;5012219;28;20497;-65
2022/08/19 08:52:04;;;;;;;12.40;10.23;;;19.40;99.90;;;;;;5008780;28;20883;-65
2022/08/19 08:54:36;;;;;;;15.87;11.80;;;19.40;99.90;;;;;;5009295;28;20508;-66
2022/08/19 08:57:08;;;;;;;13.03;10.83;;;19.40;99.90;;;;;;5009738;28;20480;-67
2022/08/19 08:59:38;;;;;;;11.73;10.30;;;19.40;99.90;;;;;;5012800;28;20490;-67
2022/08/19 09:02:05;;;;;;;15.30;11.10;;;19.40;99.90;;;;;;5009670;28;20462;-67
2022/08/19 09:04:31;;;;;;;17.47;10.67;;;19.40;99.90;;;;;;5012513;28;20473;-67
2022/08/19 09:07:18;;;;;;;14.03;10.80;;;19.40;99.90;;;;;;5013424;28;20481;-66
2022/08/19 09:09:50;;;;;;;12.93;10.60;;;19.40;99.90;;;;;;5012722;28;20855;-67
2022/08/19 09:12:25;;;;;;;11.23;10.07;;;19.40;99.90;;;;;;5007988;28;20454;-67
2022/08/19 09:14:56;;;;;;;11.87;10.23;;;19.50;99.90;;;;;;5011645;28;20472;-67
2022/08/19 09:17:27;;;;;;;11.87;10.10;;;19.50;99.90;;;;;;5012893;28;20497;-66
2022/08/19 09:19:56;;;;;;;12.87;10.10;;;19.50;99.90;;;;;;5012435;28;20901;-67
2022/08/19 09:22:23;;;;;;;14.93;10.77;;;19.50;99.90;;;;;;5009132;28;20537;-65
2022/08/19 09:24:52;;;;;;;13.90;11.37;;;19.50;99.90;;;;;;5012517;28;20454;-66
2022/08/19 09:27:20;;;;;;;10.47;9.37;;;19.50;99.90;;;;;;5011140;28;20516;-65
2022/08/19 09:29:48;;;;;;;12.77;11.07;;;19.50;99.90;;;;;;5012350;28;20458;-67
2022/08/19 09:32:15;;;;;;;16.20;10.27;;;19.60;99.90;;;;;;5008695;28;20453;-66
2022/08/19 09:34:43;;;;;;;14.70;12.03;;;19.60;99.90;;;;;;5011438;28;21161;-67
2022/08/19 09:37:10;;;;;;;11.70;10.50;;;19.60;99.90;;;;;;5011949;28;20940;-67
2022/08/19 09:39:37;;;;;;;11.37;10.17;;;19.60;99.90;;;;;;5029179;23;20937;-68
2022/08/19 09:42:10;;;;;;;11.93;10.20;;;19.60;99.90;;;;;;5030484;28;20844;-70
2022/08/19 09:44:36;;;;;;;12.23;9.90;;;19.60;99.90;;;;;;5030194;28;20487;-70
2022/08/19 09:47:04;;;;;;;13.53;11.53;;;19.60;99.90;;;;;;5031854;28;20477;-70
2022/08/19 09:49:31;;;;;;;11.77;10.20;;;19.60;99.90;;;;;;5030996;28;20457;-70
2022/08/19 09:51:58;;;;;;;12.80;10.13;;;19.60;99.90;;;;;;5023343;28;20826;-69
2022/08/19 09:54:25;;;;;;;15.20;11.23;;;19.70;99.90;;;;;;5009705;28;20463;-70
2022/08/19 09:56:52;;;;;;;12.67;10.30;;;19.70;99.90;;;;;;5011914;28;20485;-69
2022/08/19 09:59:20;;;;;;;11.60;10.40;;;19.80;99.90;;;;;;5015612;28;20489;-69
2022/08/19 10:01:47;;;;;;;11.13;9.77;;;19.80;99.90;;;;;;5025062;28;20472;-69
2022/08/19 10:04:14;;;;;;;12.63;9.30;;;19.90;99.90;;;;;;5010572;28;20504;-70
2022/08/19 10:06:41;;;;;;;9.83;8.83;;;19.90;99.90;;;;;;5011066;28;20470;-70
2022/08/19 10:09:10;;;;;;;11.90;10.23;;;19.90;99.90;;;;;;5012538;28;20458;-69
2022/08/19 10:11:41;;;;;;;11.77;9.43;;;19.90;99.90;;;;;;5010661;28;20476;-69
2022/08/19 10:14:07;;;;;;;10.50;9.40;;;19.90;99.90;;;;;;5010383;28;20458;-70
2022/08/19 10:16:38;;;;;;;13.33;9.40;;;20.00;99.90;;;;;;5010928;28;20963;-71
2022/08/19 10:19:05;;;;;;;10.23;9.00;;;20.00;99.90;;;;;;5011449;28;20517;-70
2022/08/19 10:21:34;;;;;;;11.00;9.27;;;20.00;99.90;;;;;;5009402;28;20471;-70
2022/08/19 10:24:03;;;;;;;16.03;12.57;;;20.00;99.90;;;;;;5010569;28;20458;-71
2022/08/19 10:26:34;;;;;;;15.47;12.30;;;20.00;99.90;;;;;;5011052;28;20961;-70
2022/08/19 10:29:01;;;;;;;14.00;10.10;;;20.10;99.90;;;;;;5011893;28;20880;-69
2022/08/19 10:31:30;;;;;;;12.90;10.47;;;20.10;99.90;;;;;;5010288;28;20462;-71
2022/08/19 10:33:59;;;;;;;11.97;10.37;;;20.10;99.90;;;;;;5010125;28;20462;-68
2022/08/19 10:36:28;;;;;;;10.27;9.10;;;20.20;99.90;;;;;;5011064;28;20882;-70
2022/08/19 10:38:58;;;;;;;9.20;8.30;;;20.20;99.90;;;;;;5010401;28;20905;-69
2022/08/19 10:41:26;;;;;;;10.47;9.37;;;20.20;99.90;;;;;;5010764;28;20499;-68
2022/08/19 10:43:54;;;;;;;9.60;8.70;;;20.30;99.90;;;;;;5009038;28;20869;-68
2022/08/19 10:46:23;;;;;;;9.00;8.07;;;20.30;99.90;;;;;;5011477;28;20904;-67
2022/08/19 10:48:50;;;;;;;10.33;8.83;;;20.30;99.90;;;;;;5011465;28;20866;-69
2022/08/19 10:54:04;;;;;;;9.23;7.00;;;20.40;99.90;;;;;;5009976;28;20452;-71
2022/08/19 10:59:13;;;;;;;10.50;7.27;;;20.40;99.90;;;;;;5006247;28;20482;-68
2022/08/19 11:01:40;;;;;;;10.70;8.37;;;20.30;99.90;;;;;;5007509;28;20520;-68
2022/08/19 11:04:09;;;;;;;11.07;7.70;;;20.40;99.90;;;;;;5009832;28;20466;-69
2022/08/19 11:06:40;;;;;;;10.53;8.30;;;20.40;99.90;;;;;;5010286;28;20457;-69
2022/08/19 11:09:07;;;;;;;8.17;7.33;;;20.40;99.90;;;;;;5011006;28;20877;-69
2022/08/19 11:11:39;;;;;;;8.00;7.17;;;20.40;99.90;;;;;;5008286;28;20462;-69
2022/08/19 11:14:06;;;;;;;7.50;6.73;;;20.40;99.90;;;;;;5009978;28;20462;-69
2022/08/19 11:16:32;;;;;;;9.37;7.50;;;20.50;99.90;;;;;;5010132;28;20465;-69
2022/08/19 11:19:00;;;;;;;8.80;7.90;;;20.50;99.90;;;;;;5010283;28;20495;-69
2022/08/19 11:21:31;;;;;;;7.50;6.70;;;20.50;99.90;;;;;;5009941;28;20493;-69
2022/08/19 11:24:01;;;;;;;7.17;6.47;;;20.50;99.90;;;;;;5009186;28;20980;-68
2022/08/19 11:26:29;;;;;;;7.67;6.33;;;20.60;99.90;;;;;;5010311;28;20473;-69
2022/08/19 11:28:56;;;;;;;9.20;6.80;;;20.60;99.90;;;;;;5009974;28;20515;-68
2022/08/19 11:31:26;;;;;;;8.13;7.17;;;20.70;99.90;;;;;;5010745;28;20462;-70
2022/08/19 11:33:53;;;;;;;7.33;6.63;;;20.70;99.90;;;;;;5008706;28;20465;-69
2022/08/19 11:36:21;;;;;;;6.93;6.23;;;20.80;99.90;;;;;;5010382;28;20468;-71
2022/08/19 11:38:49;;;;;;;7.30;6.60;;;20.80;99.90;;;;;;5010672;28;20494;-69
2022/08/19 11:41:19;;;;;;;7.43;6.73;;;20.80;99.90;;;;;;5010585;28;20476;-69
2022/08/19 11:43:46;;;;;;;7.53;6.83;;;20.80;99.90;;;;;;5007544;28;20476;-69
2022/08/19 11:46:15;;;;;;;7.00;6.27;;;20.90;99.90;;;;;;5010779;28;20465;-68
2022/08/19 11:48:42;;;;;;;7.77;7.07;;;20.90;99.90;;;;;;5009875;28;20490;-68
2022/08/19 11:51:11;;;;;;;7.10;6.37;;;20.90;99.90;;;;;;5010544;28;20994;-68
2022/08/19 11:53:39;;;;;;;8.87;7.63;;;21.00;99.90;;;;;;5006511;28;20470;-68
2022/08/19 11:56:07;;;;;;;8.60;7.27;;;20.90;99.90;;;;;;5010448;28;20466;-69
2022/08/19 11:58:36;;;;;;;10.80;7.00;;;21.00;99.90;;;;;;5009560;28;20916;-69
2022/08/19 12:01:06;;;;;;;7.00;6.30;;;21.00;99.90;;;;;;5010909;28;20474;-69
2022/08/19 12:03:33;;;;;;;7.43;6.40;;;21.00;99.90;;;;;;5010717;28;20466;-69
2022/08/19 12:06:03;;;;;;;7.30;6.60;;;21.10;99.90;;;;;;5010820;28;20465;-69
2022/08/19 12:08:30;;;;;;;7.10;6.40;;;21.10;99.90;;;;;;5010792;28;20486;-69
2022/08/19 12:10:57;;;;;;;7.43;6.40;;;21.20;99.90;;;;;;5010778;28;20516;-69
2022/08/19 12:13:24;;;;;;;6.37;5.77;;;21.30;99.90;;;;;;5010147;28;20468;-70
2022/08/19 12:15:52;;;;;;;7.03;6.33;;;21.40;99.90;;;;;;5010659;28;20469;-70
2022/08/19 12:18:19;;;;;;;8.40;6.70;;;21.50;99.90;;;;;;5009567;28;20883;-69
2022/08/19 12:20:47;;;;;;;6.80;6.20;;;21.50;99.90;;;;;;5009039;28;20497;-69
2022/08/19 12:23:14;;;;;;;7.40;6.70;;;21.60;99.90;;;;;;5010331;28;20461;-68
2022/08/19 12:25:49;;;;;;;6.87;6.17;;;21.60;99.90;;;;;;5010666;28;20601;-69
2022/08/19 12:28:16;;;;;;;5.60;5.10;;;21.60;99.90;;;;;;5010541;28;20485;-69
2022/08/19 12:30:43;;;;;;;7.53;6.80;;;21.60;99.90;;;;;;5010229;28;20462;-68
2022/08/19 12:33:13;;;;;;;6.53;5.83;;;21.60;99.90;;;;;;5010487;28;20471;-68
2022/08/19 12:35:41;;;;;;;6.90;6.30;;;21.50;99.90;;;;;;5007871;28;20485;-69
2022/08/19 12:38:08;;;;;;;10.17;6.80;;;21.50;99.90;;;;;;4990943;28;20493;-69
2022/08/19 12:40:35;;;;;;;6.13;5.53;;;21.50;99.90;;;;;;4989977;28;20498;-69
2022/08/19 12:43:02;;;;;;;6.87;6.27;;;21.50;99.90;;;;;;4990457;28;20466;-69
2022/08/19 12:45:29;;;;;;;8.03;6.00;;;21.50;99.90;;;;;;4989819;28;20990;-69
2022/08/19 12:47:56;;;;;;;7.03;6.33;;;21.50;99.90;;;;;;4990882;28;20861;-69
2022/08/19 12:50:25;;;;;;;7.13;5.90;;;21.50;99.90;;;;;;4988821;28;20869;-69
2022/08/19 12:52:52;;;;;;;6.10;5.60;;;21.60;99.90;;;;;;4990946;28;20464;-69
2022/08/19 12:55:19;;;;;;;7.37;6.67;;;21.50;99.90;;;;;;4989878;28;20466;-69
2022/08/19 12:57:47;;;;;;;9.00;5.90;;;21.50;99.90;;;;;;4990341;28;20487;-69
2022/08/19 13:00:17;;;;;;;6.60;5.90;;;21.50;99.90;;;;;;4990644;28;20519;-69
2022/08/19 13:02:47;;;;;;;9.97;7.87;;;21.50;99.90;;;;;;4995436;28;20467;-70
2022/08/19 13:05:16;;;;;;;12.40;8.43;;;21.50;99.90;;;;;;5033282;28;20469;-71
2022/08/19 13:07:44;;;;;;;11.10;9.77;;;21.50;99.90;;;;;;5033936;28;20510;-68
2022/08/19 13:10:15;;;;;;;11.00;9.73;;;21.40;99.90;;;;;;5033552;28;20553;-69